sensor_id;sensor_type;location;lat;lon;timestamp;temperature;humidity
3998;DHT22;61314;53.444;9.902;2023-05-07T00:00:18;8.80;99.90
3998;DHT22;61314;53.444;9.902;2023-05-07T00:02:46;8.70;99.90
3998;DHT22;61314;53.444;9.902;2023-05-07T00:05:13;8.80;99.90
3998;DHT22;61314;53.444;9.902;2023-05-07T00:07:40;8.80;99.90
3998;DHT22;61314;53.444;9.902;2023-05-07T00:10:07;8.90;99.90
3998;DHT22;61314;53.444;9.902;2023-05-07T00:12:34;8.90;99.90
3998;DHT22;61314;53.444;9.902;2023-05-07T00:15:02;8.80;99.90
3998;DHT22;61314;53.444;9.902;2023-05-07T00:17:30;8.80;99.90
3998;DHT22;61314;53.444;9.902;2023-05-07T00:19:56;8.70;99.90
3998;DHT22;61314;53.444;9.902;2023-05-07T00:22:23;8.70;99.90
3998;DHT22;61314;53.444;9.902;2023-05-07T00:24:50;8.80;99.90
3998;DHT22;61314;53.444;9.902;2023-05-07T00:27:16;8.80;99.90
3998;DHT22;61314;53.444;9.902;2023-05-07T00:29:43;8.90;99.90
3998;DHT22;61314;53.444;9.902;2023-05-07T00:32:09;8.80;99.90
3998;DHT22;61314;53.444;9.902;2023-05-07T00:34:36;8.80;99.90
3998;DHT22;61314;53.444;9.902;2023-05-07T00:37:03;8.80;99.90
3998;DHT22;61314;53.444;9.902;2023-05-07T00:39:32;8.80;99.90
3998;DHT22;61314;53.444;9.902;2023-05-07T00:41:58;8.80;99.90
3998;DHT22;61314;53.444;9.902;2023-05-07T00:44:25;8.80;99.90
3998;DHT22;61314;53.444;9.902;2023-05-07T00:46:53;8.80;99.90
3998;DHT22;61314;53.444;9.902;2023-05-07T00:49:20;8.80;99.90
3998;DHT22;61314;53.444;9.902;2023-05-07T00:51:47;8.80;99.90
3998;DHT22;61314;53.444;9.902;2023-05-07T00:54:13;8.70;99.90
3998;DHT22;61314;53.444;9.902;2023-05-07T00:56:40;8.80;99.90
3998;DHT22;61314;53.444;9.902;2023-05-07T00:59:07;8.70;99.90
3998;DHT22;61314;53.444;9.902;2023-05-07T01:01:34;8.70;99.90
3998;DHT22;61314;53.444;9.902;2023-05-07T01:04:01;8.70;99.90
3998;DHT22;61314;53.444;9.902;2023-05-07T01:06:29;8.70;99.90
3998;DHT22;61314;53.444;9.902;2023-05-07T01:08:58;8.80;99.90
3998;DHT22;61314;53.444;9.902;2023-05-07T01:11:25;8.70;99.90
3998;DHT22;61314;53.444;9.902;2023-05-07T01:13:52;8.70;99.90
3998;DHT22;61314;53.444;9.902;2023-05-07T01:16:19;8.70;99.90
3998;DHT22;61314;53.444;9.902;2023-05-07T01:18:46;8.60;99.90
3998;DHT22;61314;53.444;9.902;2023-05-07T01:21:16;8.70;99.90
3998;DHT22;61314;53.444;9.902;2023-05-07T01:23:44;8.70;99.90
3998;DHT22;61314;53.444;9.902;2023-05-07T01:26:12;8.70;99.90
3998;DHT22;61314;53.444;9.902;2023-05-07T01:28:38;8.70;99.90
3998;DHT22;61314;53.444;9.902;2023-05-07T01:31:06;8.60;99.90
3998;DHT22;61314;53.444;9.902;2023-05-07T01:33:34;8.60;99.90
3998;DHT22;61314;53.444;9.902;2023-05-07T01:36:02;8.60;99.90
3998;DHT22;61314;53.444;9.902;2023-05-07T01:38:32;8.60;99.90
3998;DHT22;61314;53.444;9.902;2023-05-07T01:40:59;8.60;99.90
3998;DHT22;61314;53.444;9.902;2023-05-07T01:43:26;8.50;99.90
3998;DHT22;61314;53.444;9.902;2023-05-07T01:45:53;8.50;99.90
3998;DHT22;61314;53.444;9.902;2023-05-07T01:48:20;8.50;99.90
3998;DHT22;61314;53.444;9.902;2023-05-07T01:50:48;8.50;99.90
3998;DHT22;61314;53.444;9.902;2023-05-07T01:53:14;8.50;99.90
3998;DHT22;61314;53.444;9.902;2023-05-07T01:55:41;8.50;99.90
3998;DHT22;61314;53.444;9.902;2023-05-07T01:58:08;8.50;99.90
3998;DHT22;61314;53.444;9.902;2023-05-07T02:00:34;8.50;99.90
3998;DHT22;61314;53.444;9.902;2023-05-07T02:03:01;8.50;99.90
3998;DHT22;61314;53.444;9.902;2023-05-07T02:05:28;8.50;99.90
3998;DHT22;61314;53.444;9.902;2023-05-07T02:07:54;8.50;99.90
3998;DHT22;61314;53.444;9.902;2023-05-07T02:10:21;8.50;99.90
3998;DHT22;61314;53.444;9.902;2023-05-07T02:12:48;8.50;99.90
3998;DHT22;61314;53.444;9.902;2023-05-07T02:15:14;8.50;99.90
3998;DHT22;61314;53.444;9.902;2023-05-07T02:18:01;8.50;99.90
3998;DHT22;61314;53.444;9.902;2023-05-07T02:20:28;8.50;99.90
3998;DHT22;61314;53.444;9.902;2023-05-07T02:22:55;8.50;99.90
3998;DHT22;61314;53.444;9.902;2023-05-07T02:25:21;8.50;99.90
3998;DHT22;61314;53.444;9.902;2023-05-07T02:27:48;8.50;99.90
3998;DHT22;61314;53.444;9.902;2023-05-07T02:30:15;8.50;99.90
3998;DHT22;61314;53.444;9.902;2023-05-07T02:32:42;8.50;99.90
3998;DHT22;61314;53.444;9.902;2023-05-07T02:35:09;8.50;99.90
3998;DHT22;61314;53.444;9.902;2023-05-07T02:37:36;8.50;99.90
3998;DHT22;61314;53.444;9.902;2023-05-07T02:40:03;8.50;99.90
3998;DHT22;61314;53.444;9.902;2023-05-07T02:42:30;8.50;99.90
3998;DHT22;61314;53.444;9.902;2023-05-07T02:44:57;8.50;99.90
3998;DHT22;61314;53.444;9.902;2023-05-07T02:47:24;8.50;99.90
3998;DHT22;61314;53.444;9.902;2023-05-07T02:49:54;8.50;99.90
3998;DHT22;61314;53.444;9.902;2023-05-07T02:52:21;8.50;99.90
3998;DHT22;61314;53.444;9.902;2023-05-07T02:54:48;8.50;99.90
3998;DHT22;61314;53.444;9.902;2023-05-07T02:57:15;8.50;99.90
3998;DHT22;61314;53.444;9.902;2023-05-07T02:59:42;8.50;99.90
3998;DHT22;61314;53.444;9.902;2023-05-07T03:02:09;8.40;99.90
3998;DHT22;61314;53.444;9.902;2023-05-07T03:04:36;8.40;99.90
3998;DHT22;61314;53.444;9.902;2023-05-07T03:07:03;8.40;99.90
3998;DHT22;61314;53.444;9.902;2023-05-07T03:09:29;8.40;99.90
3998;DHT22;61314;53.444;9.902;2023-05-07T03:11:56;8.40;99.90
3998;DHT22;61314;53.444;9.902;2023-05-07T03:19:17;8.40;99.90
3998;DHT22;61314;53.444;9.902;2023-05-07T03:21:43;8.50;99.90
3998;DHT22;61314;53.444;9.902;2023-05-07T03:24:10;8.50;99.90
3998;DHT22;61314;53.444;9.902;2023-05-07T03:26:37;8.50;99.90
3998;DHT22;61314;53.444;9.902;2023-05-07T03:29:03;8.50;99.90
3998;DHT22;61314;53.444;9.902;2023-05-07T03:31:30;8.50;99.90
3998;DHT22;61314;53.444;9.902;2023-05-07T03:33:57;8.50;99.90
3998;DHT22;61314;53.444;9.902;2023-05-07T03:36:24;8.50;99.90
3998;DHT22;61314;53.444;9.902;2023-05-07T03:38:53;8.50;99.90
3998;DHT22;61314;53.444;9.902;2023-05-07T03:41:19;8.50;99.90
3998;DHT22;61314;53.444;9.902;2023-05-07T03:43:46;8.50;99.90
3998;DHT22;61314;53.444;9.902;2023-05-07T03:46:13;8.50;99.90
3998;DHT22;61314;53.444;9.902;2023-05-07T03:48:40;8.50;99.90
3998;DHT22;61314;53.444;9.902;2023-05-07T03:51:06;8.50;99.90
3998;DHT22;61314;53.444;9.902;2023-05-07T03:53:33;8.50;99.90
3998;DHT22;61314;53.444;9.902;2023-05-07T03:56:00;8.60;99.90
3998;DHT22;61314;53.444;9.902;2023-05-07T03:58:26;8.50;99.90
3998;DHT22;61314;53.444;9.902;2023-05-07T04:00:53;8.50;99.90
3998;DHT22;61314;53.444;9.902;2023-05-07T04:03:19;8.50;99.90
3998;DHT22;61314;53.444;9.902;2023-05-07T04:05:46;8.50;99.90
3998;DHT22;61314;53.444;9.902;2023-05-07T04:08:13;8.50;99.90
3998;DHT22;61314;53.444;9.902;2023-05-07T04:10:39;8.50;99.90
3998;DHT22;61314;53.444;9.902;2023-05-07T04:13:06;8.50;99.90
3998;DHT22;61314;53.444;9.902;2023-05-07T04:15:33;8.50;99.90
3998;DHT22;61314;53.444;9.902;2023-05-07T04:18:00;8.50;99.90
3998;DHT22;61314;53.444;9.902;2023-05-07T04:20:26;8.50;99.90
3998;DHT22;61314;53.444;9.902;2023-05-07T04:22:53;8.60;99.90
3998;DHT22;61314;53.444;9.902;2023-05-07T04:25:19;8.50;99.90
3998;DHT22;61314;53.444;9.902;2023-05-07T04:27:46;8.50;99.90
3998;DHT22;61314;53.444;9.902;2023-05-07T04:30:13;8.50;99.90
3998;DHT22;61314;53.444;9.902;2023-05-07T04:32:40;8.50;99.90
3998;DHT22;61314;53.444;9.902;2023-05-07T04:35:07;8.50;99.90
3998;DHT22;61314;53.444;9.902;2023-05-07T04:37:33;8.50;99.90
3998;DHT22;61314;53.444;9.902;2023-05-07T04:40:01;8.50;99.90
3998;DHT22;61314;53.444;9.902;2023-05-07T04:42:29;8.60;99.90
3998;DHT22;61314;53.444;9.902;2023-05-07T04:44:56;8.50;99.90
3998;DHT22;61314;53.444;9.902;2023-05-07T04:47:23;8.60;99.90
3998;DHT22;61314;53.444;9.902;2023-05-07T04:49:49;8.60;99.90
3998;DHT22;61314;53.444;9.902;2023-05-07T04:52:16;8.60;99.90
3998;DHT22;61314;53.444;9.902;2023-05-07T04:54:43;8.60;99.90
3998;DHT22;61314;53.444;9.902;2023-05-07T04:57:09;8.60;99.90
3998;DHT22;61314;53.444;9.902;2023-05-07T04:59:36;8.60;99.90
3998;DHT22;61314;53.444;9.902;2023-05-07T05:02:02;8.60;99.90
3998;DHT22;61314;53.444;9.902;2023-05-07T05:04:30;8.60;99.90
3998;DHT22;61314;53.444;9.902;2023-05-07T05:06:57;8.60;99.90
3998;DHT22;61314;53.444;9.902;2023-05-07T05:09:24;8.60;99.90
3998;DHT22;61314;53.444;9.902;2023-05-07T05:11:51;8.60;99.90
3998;DHT22;61314;53.444;9.902;2023-05-07T05:14:17;8.60;99.90
3998;DHT22;61314;53.444;9.902;2023-05-07T05:16:44;8.60;99.90
3998;DHT22;61314;53.444;9.902;2023-05-07T05:19:10;8.60;99.90
3998;DHT22;61314;53.444;9.902;2023-05-07T05:21:37;8.60;99.90
3998;DHT22;61314;53.444;9.902;2023-05-07T05:24:04;8.70;99.90
3998;DHT22;61314;53.444;9.902;2023-05-07T05:26:30;8.70;99.90
3998;DHT22;61314;53.444;9.902;2023-05-07T05:28:57;8.70;99.90
3998;DHT22;61314;53.444;9.902;2023-05-07T05:31:23;8.70;99.90
3998;DHT22;61314;53.444;9.902;2023-05-07T05:33:50;8.70;99.90
3998;DHT22;61314;53.444;9.902;2023-05-07T05:36:17;8.70;99.90
3998;DHT22;61314;53.444;9.902;2023-05-07T05:38:44;8.70;99.90
3998;DHT22;61314;53.444;9.902;2023-05-07T05:41:11;8.70;99.90
3998;DHT22;61314;53.444;9.902;2023-05-07T05:43:37;8.70;99.90
3998;DHT22;61314;53.444;9.902;2023-05-07T05:46:04;8.70;99.90
3998;DHT22;61314;53.444;9.902;2023-05-07T05:48:31;8.80;99.90
3998;DHT22;61314;53.444;9.902;2023-05-07T05:50:57;8.70;99.90
3998;DHT22;61314;53.444;9.902;2023-05-07T05:53:24;8.70;99.90
3998;DHT22;61314;53.444;9.902;2023-05-07T05:55:50;8.70;99.90
3998;DHT22;61314;53.444;9.902;2023-05-07T05:58:17;8.80;99.90
3998;DHT22;61314;53.444;9.902;2023-05-07T06:00:45;8.80;99.90
3998;DHT22;61314;53.444;9.902;2023-05-07T06:03:12;8.80;99.90
3998;DHT22;61314;53.444;9.902;2023-05-07T06:05:40;8.80;99.90
3998;DHT22;61314;53.444;9.902;2023-05-07T06:08:06;8.80;99.90
3998;DHT22;61314;53.444;9.902;2023-05-07T06:10:33;8.80;99.90
3998;DHT22;61314;53.444;9.902;2023-05-07T06:12:59;8.80;99.90
3998;DHT22;61314;53.444;9.902;2023-05-07T06:15:26;8.80;99.90
3998;DHT22;61314;53.444;9.902;2023-05-07T06:17:53;8.90;99.90
3998;DHT22;61314;53.444;9.902;2023-05-07T06:20:19;8.90;99.90
3998;DHT22;61314;53.444;9.902;2023-05-07T06:22:46;8.90;99.90
3998;DHT22;61314;53.444;9.902;2023-05-07T06:25:12;8.90;99.90
3998;DHT22;61314;53.444;9.902;2023-05-07T06:27:39;8.90;99.90
3998;DHT22;61314;53.444;9.902;2023-05-07T06:30:07;8.90;99.90
3998;DHT22;61314;53.444;9.902;2023-05-07T06:32:34;9.00;99.90
3998;DHT22;61314;53.444;9.902;2023-05-07T06:35:00;9.00;99.90
3998;DHT22;61314;53.444;9.902;2023-05-07T06:37:27;9.00;99.90
3998;DHT22;61314;53.444;9.902;2023-05-07T06:39:54;9.00;99.90
3998;DHT22;61314;53.444;9.902;2023-05-07T06:42:20;9.00;99.90
3998;DHT22;61314;53.444;9.902;2023-05-07T06:44:47;9.00;99.90
3998;DHT22;61314;53.444;9.902;2023-05-07T06:47:14;9.10;99.90
3998;DHT22;61314;53.444;9.902;2023-05-07T06:49:42;9.10;99.90
3998;DHT22;61314;53.444;9.902;2023-05-07T06:52:08;9.00;99.90
3998;DHT22;61314;53.444;9.902;2023-05-07T06:54:35;9.10;99.90
3998;DHT22;61314;53.444;9.902;2023-05-07T06:57:01;9.10;99.90
3998;DHT22;61314;53.444;9.902;2023-05-07T06:59:28;9.20;99.90
3998;DHT22;61314;53.444;9.902;2023-05-07T07:01:54;9.20;99.90
3998;DHT22;61314;53.444;9.902;2023-05-07T07:04:21;9.20;99.90
3998;DHT22;61314;53.444;9.902;2023-05-07T07:06:49;9.20;99.90
3998;DHT22;61314;53.444;9.902;2023-05-07T07:09:17;9.20;99.90
3998;DHT22;61314;53.444;9.902;2023-05-07T07:11:44;9.30;99.90
3998;DHT22;61314;53.444;9.902;2023-05-07T07:14:11;9.30;99.90
3998;DHT22;61314;53.444;9.902;2023-05-07T07:16:37;9.30;99.90
3998;DHT22;61314;53.444;9.902;2023-05-07T07:19:04;9.30;99.90
3998;DHT22;61314;53.444;9.902;2023-05-07T07:21:30;9.30;99.90
3998;DHT22;61314;53.444;9.902;2023-05-07T07:23:58;9.30;99.90
3998;DHT22;61314;53.444;9.902;2023-05-07T07:26:24;9.40;99.90
3998;DHT22;61314;53.444;9.902;2023-05-07T07:28:51;9.50;99.90
3998;DHT22;61314;53.444;9.902;2023-05-07T07:31:18;9.40;99.90
3998;DHT22;61314;53.444;9.902;2023-05-07T07:33:44;9.50;99.90
3998;DHT22;61314;53.444;9.902;2023-05-07T07:36:11;9.50;99.90
3998;DHT22;61314;53.444;9.902;2023-05-07T07:38:37;9.60;99.90
3998;DHT22;61314;53.444;9.902;2023-05-07T07:41:04;9.50;99.90
3998;DHT22;61314;53.444;9.902;2023-05-07T07:43:30;9.60;99.90
3998;DHT22;61314;53.444;9.902;2023-05-07T07:45:57;9.60;99.90
3998;DHT22;61314;53.444;9.902;2023-05-07T07:48:23;9.70;99.90
3998;DHT22;61314;53.444;9.902;2023-05-07T07:50:50;9.70;99.90
3998;DHT22;61314;53.444;9.902;2023-05-07T07:53:20;9.70;99.90
3998;DHT22;61314;53.444;9.902;2023-05-07T07:55:46;9.70;99.90
3998;DHT22;61314;53.444;9.902;2023-05-07T07:58:13;9.80;99.90
3998;DHT22;61314;53.444;9.902;2023-05-07T08:00:40;9.80;99.90
3998;DHT22;61314;53.444;9.902;2023-05-07T08:03:09;9.90;99.90
3998;DHT22;61314;53.444;9.902;2023-05-07T08:05:37;9.90;99.90
3998;DHT22;61314;53.444;9.902;2023-05-07T08:08:05;9.90;99.90
3998;DHT22;61314;53.444;9.902;2023-05-07T08:10:32;10.00;99.90
3998;DHT22;61314;53.444;9.902;2023-05-07T08:13:01;10.00;99.90
3998;DHT22;61314;53.444;9.902;2023-05-07T08:15:28;10.00;99.90
3998;DHT22;61314;53.444;9.902;2023-05-07T08:17:55;10.00;99.90
3998;DHT22;61314;53.444;9.902;2023-05-07T08:20:23;10.10;99.90
3998;DHT22;61314;53.444;9.902;2023-05-07T08:22:51;10.10;99.90
3998;DHT22;61314;53.444;9.902;2023-05-07T08:25:18;10.10;99.90
3998;DHT22;61314;53.444;9.902;2023-05-07T08:27:44;10.20;99.90
3998;DHT22;61314;53.444;9.902;2023-05-07T08:30:11;10.20;99.90
3998;DHT22;61314;53.444;9.902;2023-05-07T08:32:38;10.30;99.90
3998;DHT22;61314;53.444;9.902;2023-05-07T08:35:05;10.30;99.90
3998;DHT22;61314;53.444;9.902;2023-05-07T08:37:32;10.30;99.90
3998;DHT22;61314;53.444;9.902;2023-05-07T08:39:58;10.30;99.90
3998;DHT22;61314;53.444;9.902;2023-05-07T08:42:26;10.30;99.90
3998;DHT22;61314;53.444;9.902;2023-05-07T08:44:57;10.30;99.90
3998;DHT22;61314;53.444;9.902;2023-05-07T08:47:26;10.30;99.90
3998;DHT22;61314;53.444;9.902;2023-05-07T08:49:54;10.40;99.90
3998;DHT22;61314;53.444;9.902;2023-05-07T08:52:21;10.40;99.90
3998;DHT22;61314;53.444;9.902;2023-05-07T08:54:47;10.50;99.90
3998;DHT22;61314;53.444;9.902;2023-05-07T08:57:14;10.50;99.90
3998;DHT22;61314;53.444;9.902;2023-05-07T08:59:40;10.50;99.90
3998;DHT22;61314;53.444;9.902;2023-05-07T09:02:09;10.60;99.90
3998;DHT22;61314;53.444;9.902;2023-05-07T09:04:37;10.60;99.90
3998;DHT22;61314;53.444;9.902;2023-05-07T09:07:04;10.60;99.90
3998;DHT22;61314;53.444;9.902;2023-05-07T09:09:32;10.70;99.90
3998;DHT22;61314;53.444;9.902;2023-05-07T09:11:59;10.70;99.90
3998;DHT22;61314;53.444;9.902;2023-05-07T09:14:26;10.80;99.90
3998;DHT22;61314;53.444;9.902;2023-05-07T09:16:53;10.80;99.90
3998;DHT22;61314;53.444;9.902;2023-05-07T09:19:24;10.80;99.90
3998;DHT22;61314;53.444;9.902;2023-05-07T09:21:58;10.90;99.90
3998;DHT22;61314;53.444;9.902;2023-05-07T09:24:26;10.90;99.90
3998;DHT22;61314;53.444;9.902;2023-05-07T09:26:55;10.90;99.90
3998;DHT22;61314;53.444;9.902;2023-05-07T09:29:23;11.00;99.90
3998;DHT22;61314;53.444;9.902;2023-05-07T09:31:51;11.00;99.90
3998;DHT22;61314;53.444;9.902;2023-05-07T09:34:17;11.10;99.90
3998;DHT22;61314;53.444;9.902;2023-05-07T09:36:44;11.10;99.90
3998;DHT22;61314;53.444;9.902;2023-05-07T09:39:11;11.10;99.90
3998;DHT22;61314;53.444;9.902;2023-05-07T09:41:45;11.10;99.90
3998;DHT22;61314;53.444;9.902;2023-05-07T09:44:13;11.10;99.90
3998;DHT22;61314;53.444;9.902;2023-05-07T09:46:43;11.20;99.90
3998;DHT22;61314;53.444;9.902;2023-05-07T09:49:13;11.20;99.90
3998;DHT22;61314;53.444;9.902;2023-05-07T09:51:52;11.20;99.90
3998;DHT22;61314;53.444;9.902;2023-05-07T09:54:19;11.20;99.90
3998;DHT22;61314;53.444;9.902;2023-05-07T09:56:48;11.30;99.90
3998;DHT22;61314;53.444;9.902;2023-05-07T09:59:16;11.30;99.90
3998;DHT22;61314;53.444;9.902;2023-05-07T10:04:11;11.40;99.90
3998;DHT22;61314;53.444;9.902;2023-05-07T10:06:38;11.40;99.90
3998;DHT22;61314;53.444;9.902;2023-05-07T10:09:05;11.50;99.90
3998;DHT22;61314;53.444;9.902;2023-05-07T10:11:33;11.50;99.90
3998;DHT22;61314;53.444;9.902;2023-05-07T10:14:01;11.50;99.90
3998;DHT22;61314;53.444;9.902;2023-05-07T10:16:32;11.60;99.90
3998;DHT22;61314;53.444;9.902;2023-05-07T10:18:59;11.60;99.90
3998;DHT22;61314;53.444;9.902;2023-05-07T10:21:27;11.70;99.90
3998;DHT22;61314;53.444;9.902;2023-05-07T10:32:04;12.00;99.90
3998;DHT22;61314;53.444;9.902;2023-05-07T10:37:04;12.10;99.90
3998;DHT22;61314;53.444;9.902;2023-05-07T10:39:31;12.10;99.90
3998;DHT22;61314;53.444;9.902;2023-05-07T10:42:11;12.10;99.90
3998;DHT22;61314;53.444;9.902;2023-05-07T10:55:18;11.40;99.90
3998;DHT22;61314;53.444;9.902;2023-05-07T10:57:37;12.20;99.90
3998;DHT22;61314;53.444;9.902;2023-05-07T11:00:40;12.30;99.90
3998;DHT22;61314;53.444;9.902;2023-05-07T11:03:05;12.30;99.90
3998;DHT22;61314;53.444;9.902;2023-05-07T11:10:48;12.30;99.90
3998;DHT22;61314;53.444;9.902;2023-05-07T11:15:47;13.00;99.90
3998;DHT22;61314;53.444;9.902;2023-05-07T11:18:15;12.50;99.90
3998;DHT22;61314;53.444;9.902;2023-05-07T11:20:56;12.50;99.90
3998;DHT22;61314;53.444;9.902;2023-05-07T11:28:40;12.60;99.90
3998;DHT22;61314;53.444;9.902;2023-05-07T11:31:10;12.60;99.90
3998;DHT22;61314;53.444;9.902;2023-05-07T11:33:40;12.60;99.90
3998;DHT22;61314;53.444;9.902;2023-05-07T11:36:08;12.70;99.90
3998;DHT22;61314;53.444;9.902;2023-05-07T11:38:36;12.80;99.90
3998;DHT22;61314;53.444;9.902;2023-05-07T11:41:03;12.80;99.90
3998;DHT22;61314;53.444;9.902;2023-05-07T11:43:34;12.90;99.90
3998;DHT22;61314;53.444;9.902;2023-05-07T11:56:15;13.20;99.90
3998;DHT22;61314;53.444;9.902;2023-05-07T12:01:14;13.30;99.90
3998;DHT22;61314;53.444;9.902;2023-05-07T12:06:16;13.50;99.90
3998;DHT22;61314;53.444;9.902;2023-05-07T12:11:22;13.40;99.90
3998;DHT22;61314;53.444;9.902;2023-05-07T12:13:49;13.60;99.90
3998;DHT22;61314;53.444;9.902;2023-05-07T12:16:17;13.60;99.90
